createdAt,value
2023-12-30T00:02:12.326Z,8.20
2023-12-30T00:04:44.400Z,8.20
2023-12-30T00:07:12.912Z,8.30
2023-12-30T00:09:40.210Z,8.10
2023-12-30T00:12:08.012Z,7.80
2023-12-30T00:14:35.862Z,7.70
2023-12-30T00:17:05.059Z,7.90
2023-12-30T00:19:43.652Z,7.80
2023-12-30T00:22:12.460Z,8.10
2023-12-30T00:32:16.184Z,7.90
2023-12-30T00:34:44.251Z,8.00
2023-12-30T00:37:14.183Z,7.90
2023-12-30T00:39:43.468Z,7.70
2023-12-30T00:42:19.067Z,7.60
2023-12-30T00:44:46.545Z,7.50
2023-12-30T00:47:15.996Z,7.60
2023-12-30T00:49:44.112Z,7.80
2023-12-30T00:52:13.068Z,7.70
2023-12-30T01:10:17.620Z,7.70
2023-12-30T01:12:45.003Z,7.80
2023-12-30T01:15:12.548Z,7.50
2023-12-30T01:17:40.406Z,7.40
2023-12-30T01:20:12.054Z,7.40
2023-12-30T01:22:43.685Z,7.30
2023-12-30T01:25:14.743Z,7.30
2023-12-30T01:41:00.049Z,7.60
2023-12-30T01:43:29.378Z,7.90
2023-12-30T01:45:59.469Z,7.80
2023-12-30T01:48:28.202Z,7.90
2023-12-30T01:50:58.419Z,7.70
2023-12-30T01:53:29.964Z,7.60
2023-12-30T01:56:01.882Z,7.70
2023-12-30T01:58:30.379Z,7.40
2023-12-30T02:16:31.832Z,7.70
2023-12-30T02:19:02.258Z,8.00
2023-12-30T02:21:30.152Z,8.00
2023-12-30T02:23:58.929Z,7.90
2023-12-30T02:26:27.337Z,7.80
2023-12-30T02:28:56.472Z,7.80
2023-12-30T02:31:25.186Z,7.70
2023-12-30T02:33:54.744Z,7.60
2023-12-30T02:41:37.768Z,7.60
2023-12-30T02:44:12.325Z,7.70
2023-12-30T02:46:39.722Z,7.50
2023-12-30T02:52:01.370Z,7.60
2023-12-30T02:54:47.048Z,7.40
2023-12-30T02:58:12.746Z,7.50
2023-12-30T03:01:08.237Z,7.40
2023-12-30T03:03:39.730Z,7.80
2023-12-30T03:06:33.633Z,7.50
2023-12-30T03:09:18.676Z,7.40
2023-12-30T03:21:47.620Z,7.50
2023-12-30T03:24:17.047Z,7.70
2023-12-30T03:26:46.101Z,7.80
2023-12-30T03:29:13.922Z,7.50
2023-12-30T03:31:42.301Z,7.40
2023-12-30T03:34:09.678Z,7.60
2023-12-30T03:36:37.327Z,7.60
2023-12-30T03:43:11.537Z,7.60
2023-12-30T03:45:38.971Z,7.30
2023-12-30T03:48:07.715Z,7.20
2023-12-30T03:50:37.303Z,7.20
2023-12-30T03:53:05.118Z,7.20
2023-12-30T03:55:34.438Z,7.20
2023-12-30T03:58:01.914Z,7.50
2023-12-30T04:00:32.032Z,7.70
2023-12-30T04:19:18.425Z,7.20
2023-12-30T04:24:58.496Z,7.70
2023-12-30T04:27:27.938Z,7.50
2023-12-30T04:30:19.510Z,7.60
2023-12-30T04:32:53.578Z,7.40
2023-12-30T04:35:42.201Z,7.30
2023-12-30T04:41:27.832Z,7.40
2023-12-30T04:44:08.744Z,7.40
2023-12-30T04:46:51.287Z,7.30
2023-12-30T04:49:29.523Z,7.30
2023-12-30T04:52:59.657Z,7.40
2023-12-30T04:55:30.706Z,7.70
2023-12-30T04:58:06.189Z,8.10
2023-12-30T05:14:00.673Z,8.30
2023-12-30T05:16:48.758Z,8.20
2023-12-30T05:33:37.662Z,8.00
2023-12-30T05:36:54.461Z,8.00
2023-12-30T05:39:46.710Z,8.30
2023-12-30T06:31:27.596Z,7.90
2023-12-30T06:33:55.124Z,7.90
2023-12-30T06:36:23.925Z,7.60
2023-12-30T06:38:51.310Z,7.50
2023-12-30T06:41:20.487Z,7.60
2023-12-30T06:43:48.014Z,7.80
2023-12-30T06:46:19.038Z,7.70
2023-12-30T06:48:47.910Z,7.50
2023-12-30T07:10:42.308Z,8.30
2023-12-30T07:13:10.103Z,8.30
2023-12-30T07:15:37.640Z,8.40
2023-12-30T07:18:06.118Z,8.20
2023-12-30T07:20:35.353Z,8.10
2023-12-30T07:23:05.119Z,8.10
2023-12-30T07:25:32.519Z,8.30
2023-12-30T07:30:42.795Z,8.20
2023-12-30T07:33:09.961Z,8.10
2023-12-30T07:35:36.873Z,8.10
2023-12-30T07:38:04.504Z,8.10
2023-12-30T07:40:31.685Z,8.10
2023-12-30T07:42:58.735Z,8.20
2023-12-30T07:45:26.129Z,8.40
2023-12-30T07:47:55.614Z,8.20
2023-12-30T08:00:41.358Z,7.70
2023-12-30T08:06:47.245Z,7.90
2023-12-30T08:24:32.817Z,7.70
2023-12-30T09:13:56.973Z,8.80
2023-12-30T09:16:24.083Z,8.90
2023-12-30T09:18:51.864Z,8.90
2023-12-30T09:21:19.171Z,9.00
2023-12-30T09:23:46.842Z,9.10
2023-12-30T09:26:16.107Z,9.20
2023-12-30T09:28:43.504Z,9.20
2023-12-30T09:31:12.256Z,9.30
2023-12-30T09:49:15.653Z,9.00
2023-12-30T09:51:43.310Z,8.90
2023-12-30T09:54:11.543Z,9.10
2023-12-30T09:56:41.681Z,9.10
2023-12-30T09:59:09.289Z,8.90
2023-12-30T10:01:40.725Z,8.80
2023-12-30T10:04:08.551Z,8.90
2023-12-30T10:22:10.612Z,8.80
2023-12-30T10:24:39.014Z,9.10
2023-12-30T10:27:06.502Z,8.90
2023-12-30T10:29:46.704Z,8.90
2023-12-30T10:32:24.420Z,8.80
2023-12-30T10:34:52.247Z,8.60
2023-12-30T10:37:23.990Z,8.70
2023-12-30T10:58:17.810Z,8.60
2023-12-30T11:00:47.843Z,9.40
2023-12-30T11:03:15.634Z,9.10
2023-12-30T11:05:55.946Z,9.20
2023-12-30T11:08:23.322Z,9.50
2023-12-30T11:10:52.288Z,9.60
2023-12-30T11:13:21.418Z,9.50
2023-12-30T11:29:00.357Z,9.30
2023-12-30T11:32:00.251Z,9.20
2023-12-30T11:38:49.093Z,9.40
2023-12-30T11:42:03.881Z,9.30
2023-12-30T11:45:05.006Z,9.40
2023-12-30T11:48:54.971Z,9.60
2023-12-30T11:54:17.132Z,10.10
2023-12-30T11:56:50.230Z,10.10
2023-12-30T12:00:29.360Z,9.90
2023-12-30T12:10:09.402Z,9.60
2023-12-30T12:12:49.996Z,9.60
2023-12-30T12:16:14.382Z,9.40
2023-12-30T12:18:47.768Z,9.70
2023-12-30T12:31:18.598Z,10.00
2023-12-30T12:33:46.197Z,9.90
2023-12-30T12:36:13.887Z,9.80
2023-12-30T12:38:41.677Z,9.80
2023-12-30T12:41:08.827Z,10.10
2023-12-30T12:43:36.311Z,10.40
2023-12-30T12:46:04.631Z,10.40
2023-12-30T12:48:33.399Z,10.20
2023-12-30T12:54:44.174Z,10.30
2023-12-30T12:57:11.595Z,10.70
2023-12-30T12:59:39.709Z,10.80
2023-12-30T13:02:09.300Z,10.70
2023-12-30T13:04:36.722Z,10.90
2023-12-30T13:07:06.424Z,11.00
2023-12-30T13:09:41.413Z,10.70
2023-12-30T13:15:27.363Z,10.70
2023-12-30T13:17:55.183Z,10.80
2023-12-30T13:20:28.364Z,10.90
2023-12-30T13:23:04.250Z,11.20
2023-12-30T13:25:38.881Z,11.00
2023-12-30T13:28:10.052Z,11.10
2023-12-30T13:30:40.758Z,11.10
2023-12-30T13:37:31.860Z,10.90
2023-12-30T13:40:01.647Z,11.00
2023-12-30T13:42:29.202Z,10.90
2023-12-30T13:44:58.329Z,11.10
2023-12-30T13:47:39.351Z,11.20
2023-12-30T13:50:16.205Z,11.30
2023-12-30T13:52:44.457Z,11.10
2023-12-30T14:00:21.030Z,11.20
2023-12-30T14:02:53.150Z,11.20
2023-12-30T14:05:29.063Z,11.10
2023-12-30T14:08:04.827Z,11.40
2023-12-30T14:10:34.108Z,11.20
2023-12-30T14:13:02.431Z,11.40
2023-12-30T14:15:30.771Z,11.00
2023-12-30T14:20:54.779Z,11.20
2023-12-30T14:23:24.209Z,11.00
2023-12-30T14:25:51.897Z,11.20
2023-12-30T14:28:19.553Z,11.00
2023-12-30T14:30:46.824Z,10.60
2023-12-30T14:33:14.874Z,10.70
2023-12-30T14:35:42.305Z,10.50
2023-12-30T14:44:47.661Z,10.70
2023-12-30T14:47:16.645Z,10.90
2023-12-30T14:49:43.749Z,11.00
2023-12-30T14:52:11.321Z,10.90
2023-12-30T14:54:39.307Z,11.10
2023-12-30T14:57:28.719Z,11.10
2023-12-30T14:59:56.952Z,11.00
2023-12-30T15:05:04.855Z,10.90
2023-12-30T15:07:33.580Z,10.90
2023-12-30T15:10:01.892Z,11.00
2023-12-30T15:12:29.146Z,10.60
2023-12-30T15:14:56.194Z,10.70
2023-12-30T15:17:23.664Z,10.80
2023-12-30T15:19:52.719Z,10.70
2023-12-30T15:25:08.727Z,10.80
2023-12-30T15:27:36.226Z,10.90
2023-12-30T15:30:03.959Z,10.80
2023-12-30T15:32:31.452Z,10.70
2023-12-30T15:34:59.470Z,10.70
2023-12-30T15:37:27.294Z,10.80
2023-12-30T15:39:54.649Z,10.80
2023-12-30T15:48:43.385Z,10.70
2023-12-30T15:51:10.698Z,10.50
2023-12-30T15:53:39.684Z,10.30
2023-12-30T15:56:07.203Z,10.20
2023-12-30T15:58:35.045Z,10.00
2023-12-30T16:01:02.821Z,9.90
2023-12-30T16:03:30.337Z,9.90
2023-12-30T16:05:59.224Z,9.80
2023-12-30T16:13:33.323Z,9.90
2023-12-30T16:16:01.895Z,9.80
2023-12-30T16:18:29.357Z,9.80
2023-12-30T16:20:56.869Z,9.70
2023-12-30T16:23:23.892Z,9.80
2023-12-30T16:25:51.048Z,9.90
2023-12-30T16:28:18.572Z,9.80
2023-12-30T16:34:00.033Z,9.60
2023-12-30T16:36:27.827Z,9.70
2023-12-30T16:38:55.651Z,9.60
2023-12-30T16:41:24.956Z,9.60
2023-12-30T16:43:52.127Z,9.40
2023-12-30T16:46:19.766Z,9.50
2023-12-30T16:48:47.129Z,9.40
2023-12-30T16:53:55.810Z,9.50
2023-12-30T16:56:23.383Z,9.40
2023-12-30T16:58:52.244Z,9.50
2023-12-30T17:01:19.574Z,9.60
2023-12-30T17:03:46.853Z,9.30
2023-12-30T17:06:15.091Z,9.40
2023-12-30T17:08:42.589Z,9.40
2023-12-30T17:13:54.092Z,9.40
2023-12-30T17:16:21.887Z,9.30
2023-12-30T17:18:49.652Z,9.30
2023-12-30T17:21:16.756Z,9.40
2023-12-30T17:23:43.952Z,9.20
2023-12-30T17:26:13.691Z,9.10
2023-12-30T17:28:41.169Z,9.10
2023-12-30T17:31:10.152Z,9.20
2023-12-30T17:36:19.782Z,9.20
2023-12-30T17:38:47.003Z,9.00
2023-12-30T17:41:14.230Z,9.00
2023-12-30T17:43:41.654Z,9.00
2023-12-30T17:46:09.296Z,8.90
2023-12-30T17:48:36.501Z,8.90
2023-12-30T17:51:03.729Z,8.90
2023-12-30T17:53:32.720Z,9.00
2023-12-30T17:59:16.965Z,9.00
2023-12-30T18:01:44.739Z,9.00
2023-12-30T18:04:13.051Z,9.10
2023-12-30T18:06:40.127Z,8.90
2023-12-30T18:09:07.586Z,8.90
2023-12-30T18:11:36.214Z,8.90
2023-12-30T18:14:03.999Z,8.80
2023-12-30T18:19:14.984Z,8.80
2023-12-30T18:21:42.099Z,8.90
2023-12-30T18:24:10.350Z,9.00
2023-12-30T18:26:39.505Z,8.90
2023-12-30T18:29:07.236Z,8.90
2023-12-30T18:31:34.758Z,8.80
2023-12-30T18:34:02.226Z,8.70
2023-12-30T18:36:30.316Z,8.70
2023-12-30T18:44:03.460Z,8.50
2023-12-30T18:46:31.145Z,8.80
2023-12-30T18:48:59.566Z,8.90
2023-12-30T18:51:27.308Z,8.80
2023-12-30T18:53:54.967Z,8.70
2023-12-30T18:56:22.281Z,8.70
2023-12-30T18:58:50.635Z,8.50
2023-12-30T19:09:05.594Z,8.80
2023-12-30T19:11:33.003Z,8.90
2023-12-30T19:14:00.172Z,8.70
2023-12-30T19:16:27.637Z,8.60
2023-12-30T19:18:55.099Z,8.70
2023-12-30T19:21:22.630Z,8.70
2023-12-30T19:23:50.056Z,8.70
2023-12-30T19:26:18.467Z,8.70
2023-12-30T19:33:56.275Z,8.70
2023-12-30T19:36:25.427Z,8.60
2023-12-30T19:38:54.023Z,8.60
2023-12-30T19:41:21.809Z,8.70
2023-12-30T19:43:49.921Z,8.70
2023-12-30T19:46:17.492Z,8.60
2023-12-30T19:48:44.832Z,8.60
2023-12-30T19:55:40.525Z,8.40
2023-12-30T19:58:08.213Z,8.40
2023-12-30T20:00:36.110Z,8.50
2023-12-30T20:03:06.047Z,8.50
2023-12-30T20:05:33.440Z,8.60
2023-12-30T20:08:01.074Z,8.50
2023-12-30T20:10:28.641Z,8.50
2023-12-30T20:20:46.291Z,8.50
2023-12-30T20:23:14.041Z,8.30
2023-12-30T20:25:41.335Z,8.30
2023-12-30T20:28:09.828Z,8.40
2023-12-30T20:30:37.298Z,8.40
2023-12-30T20:33:05.437Z,8.40
2023-12-30T20:35:33.356Z,8.40
2023-12-30T20:45:50.987Z,8.40
2023-12-30T20:48:18.332Z,8.50
2023-12-30T20:50:45.538Z,8.40
2023-12-30T20:53:13.527Z,8.60
2023-12-30T20:55:44.874Z,8.70
2023-12-30T20:58:12.535Z,8.80
2023-12-30T21:00:40.504Z,8.90
2023-12-30T21:03:09.467Z,8.90
2023-12-30T21:10:41.096Z,9.00
2023-12-30T21:13:08.852Z,9.00
2023-12-30T21:15:36.333Z,8.90
2023-12-30T21:18:04.449Z,9.00
2023-12-30T21:20:32.034Z,9.20
2023-12-30T21:23:02.753Z,9.20
2023-12-30T21:25:30.899Z,9.30
2023-12-30T21:30:45.052Z,9.40
2023-12-30T21:33:12.830Z,8.80
2023-12-30T21:35:40.351Z,8.90
2023-12-30T21:38:08.381Z,9.00
2023-12-30T21:40:36.010Z,9.10
2023-12-30T21:43:04.404Z,9.00
2023-12-30T21:45:32.362Z,9.20
2023-12-30T21:52:11.668Z,9.20
2023-12-30T21:54:41.216Z,9.20
2023-12-30T21:57:10.089Z,9.40
2023-12-30T21:59:37.211Z,9.30
2023-12-30T22:02:04.865Z,9.30
2023-12-30T22:04:32.226Z,9.30
2023-12-30T22:06:59.541Z,9.20
2023-12-30T22:09:28.100Z,9.10
2023-12-30T22:17:01.968Z,9.20
2023-12-30T22:19:29.255Z,9.50
2023-12-30T22:21:56.873Z,9.30
2023-12-30T22:24:24.377Z,9.10
2023-12-30T22:26:52.013Z,9.10
2023-12-30T22:29:19.232Z,9.20
2023-12-30T22:31:46.850Z,9.00
2023-12-30T22:37:49.253Z,8.90
2023-12-30T22:40:17.141Z,8.50
2023-12-30T22:42:44.537Z,8.50
2023-12-30T22:45:12.197Z,8.70
2023-12-30T22:47:40.079Z,8.90
2023-12-30T22:50:10.019Z,8.90
2023-12-30T22:52:37.926Z,9.00
2023-12-30T22:59:06.309Z,9.10
2023-12-30T23:01:33.509Z,8.70
2023-12-30T23:04:01.269Z,8.60
2023-12-30T23:06:29.622Z,8.70
2023-12-30T23:08:57.329Z,8.60
2023-12-30T23:11:24.538Z,8.50
2023-12-30T23:13:52.657Z,8.50
2023-12-30T23:23:13.521Z,8.50
2023-12-30T23:25:41.018Z,8.50
2023-12-30T23:28:08.437Z,8.40
2023-12-30T23:30:35.961Z,8.50
2023-12-30T23:33:03.500Z,8.70
2023-12-30T23:35:31.088Z,8.50
2023-12-30T23:37:58.073Z,8.70
2023-12-30T23:44:13.311Z,8.60
2023-12-30T23:46:40.911Z,8.50
2023-12-30T23:49:10.757Z,8.60
2023-12-30T23:51:37.949Z,8.50
2023-12-30T23:54:09.014Z,8.30
2023-12-30T23:56:42.853Z,8.30
2023-12-30T23:59:09.903Z,8.30
